createdAt,value
2023-05-12T00:01:14.310Z,12.94
2023-05-12T00:03:43.761Z,12.94
2023-05-12T00:06:12.502Z,12.80
2023-05-12T00:08:40.493Z,12.90
2023-05-12T00:11:08.390Z,12.95
2023-05-12T00:13:36.266Z,12.93
2023-05-12T00:16:04.481Z,12.85
2023-05-12T00:18:32.347Z,12.87
2023-05-12T00:21:01.522Z,12.80
2023-05-12T00:23:29.333Z,12.84
2023-05-12T00:25:57.072Z,12.87
2023-05-12T00:28:24.810Z,12.81
2023-05-12T00:30:52.613Z,12.70
2023-05-12T00:33:20.575Z,12.65
2023-05-12T00:35:48.300Z,12.64
2023-05-12T00:38:17.743Z,12.64
2023-05-12T00:40:45.508Z,12.55
2023-05-12T00:43:13.256Z,12.54
2023-05-12T00:45:41.373Z,12.52
2023-05-12T00:48:09.520Z,12.47
2023-05-12T00:50:37.602Z,12.56
2023-05-12T00:53:05.476Z,12.46
2023-05-12T00:55:34.721Z,12.38
2023-05-12T00:58:02.513Z,12.34
2023-05-12T01:00:30.544Z,12.31
2023-05-12T01:02:58.787Z,12.28
2023-05-12T01:05:31.785Z,12.30
2023-05-12T01:08:01.562Z,12.22
2023-05-12T01:10:29.341Z,11.98
2023-05-12T01:12:58.527Z,11.91
2023-05-12T01:15:26.450Z,11.80
2023-05-12T01:17:59.498Z,11.87
2023-05-12T01:20:28.142Z,11.87
2023-05-12T01:22:56.588Z,11.84
2023-05-12T01:25:25.527Z,11.87
2023-05-12T01:27:55.123Z,11.78
2023-05-12T01:30:24.649Z,11.75
2023-05-12T01:32:53.374Z,11.80
2023-05-12T01:35:21.274Z,11.83
2023-05-12T01:37:49.153Z,11.85
2023-05-12T01:40:18.168Z,11.82
2023-05-12T01:42:46.083Z,11.86
2023-05-12T01:45:15.207Z,11.64
2023-05-12T01:47:43.258Z,11.67
2023-05-12T01:50:11.683Z,11.59
2023-05-12T01:52:39.465Z,11.72
2023-05-12T01:55:08.212Z,11.77
2023-05-12T01:57:35.937Z,11.70
2023-05-12T02:00:03.884Z,11.59
2023-05-12T02:02:34.446Z,11.63
2023-05-12T02:05:02.337Z,11.58
2023-05-12T02:07:30.239Z,11.62
2023-05-12T02:09:58.168Z,11.63
2023-05-12T02:12:25.934Z,11.60
2023-05-12T02:14:53.646Z,11.49
2023-05-12T02:17:21.471Z,11.53
2023-05-12T02:19:51.257Z,11.34
2023-05-12T02:22:19.062Z,11.44
2023-05-12T02:24:46.906Z,11.40
2023-05-12T02:27:14.742Z,11.44
2023-05-12T02:29:42.868Z,11.27
2023-05-12T02:32:11.219Z,11.16
2023-05-12T02:34:39.325Z,11.33
2023-05-12T02:37:08.450Z,11.27
2023-05-12T02:39:36.227Z,11.16
2023-05-12T02:42:03.996Z,11.30
2023-05-12T02:44:31.761Z,11.20
2023-05-12T02:46:59.501Z,11.25
2023-05-12T02:49:27.298Z,11.24
2023-05-12T02:51:55.356Z,11.16
2023-05-12T02:54:24.712Z,11.24
2023-05-12T02:56:53.191Z,11.23
2023-05-12T02:59:20.970Z,11.18
2023-05-12T03:01:48.725Z,11.26
2023-05-12T03:04:16.748Z,11.23
2023-05-12T03:06:44.520Z,11.22
2023-05-12T03:09:12.320Z,11.24
2023-05-12T03:11:41.786Z,11.30
2023-05-12T03:14:09.586Z,11.33
2023-05-12T03:16:37.407Z,11.24
2023-05-12T03:19:05.676Z,11.16
2023-05-12T03:21:33.604Z,11.12
2023-05-12T03:24:01.336Z,11.06
2023-05-12T03:26:29.120Z,11.13
2023-05-12T03:28:58.224Z,11.18
2023-05-12T03:31:26.086Z,11.22
2023-05-12T03:33:54.006Z,11.20
2023-05-12T03:36:21.807Z,11.20
2023-05-12T03:38:49.510Z,11.31
2023-05-12T03:41:18.136Z,11.21
2023-05-12T03:43:45.913Z,11.19
2023-05-12T03:46:15.140Z,11.15
2023-05-12T03:48:43.212Z,11.23
2023-05-12T03:51:10.996Z,11.24
2023-05-12T03:53:40.223Z,11.29
2023-05-12T03:56:08.593Z,11.25
2023-05-12T03:58:36.523Z,11.24
2023-05-12T04:01:04.629Z,11.23
2023-05-12T04:03:33.858Z,11.07
2023-05-12T04:06:02.520Z,11.23
2023-05-12T04:08:30.838Z,11.20
2023-05-12T04:11:01.025Z,11.24
2023-05-12T04:13:30.073Z,11.27
2023-05-12T04:15:58.393Z,11.23
2023-05-12T04:18:26.879Z,11.23
2023-05-12T04:20:56.430Z,11.32
2023-05-12T04:23:24.510Z,11.28
2023-05-12T04:25:52.342Z,11.24
2023-05-12T04:28:20.099Z,11.24
2023-05-12T04:30:47.881Z,11.34
2023-05-12T04:33:15.625Z,11.36
2023-05-12T04:35:43.399Z,11.27
2023-05-12T04:38:12.541Z,11.31
2023-05-12T04:40:40.735Z,11.33
2023-05-12T04:43:08.453Z,11.27
2023-05-12T04:45:36.175Z,11.26
2023-05-12T04:48:04.010Z,11.32
2023-05-12T04:50:31.737Z,11.37
2023-05-12T04:52:59.584Z,11.41
2023-05-12T04:55:28.711Z,11.39
2023-05-12T04:57:56.437Z,11.52
2023-05-12T05:00:24.485Z,11.55
2023-05-12T05:02:52.492Z,11.55
2023-05-12T05:05:20.584Z,11.53
2023-05-12T05:07:48.801Z,11.65
2023-05-12T05:10:16.734Z,11.66
2023-05-12T05:12:45.877Z,11.74
2023-05-12T05:15:13.640Z,11.76
2023-05-12T05:17:43.865Z,11.79
2023-05-12T05:20:15.244Z,11.88
2023-05-12T05:22:43.379Z,11.95
2023-05-12T05:25:11.668Z,11.85
2023-05-12T05:27:39.745Z,11.76
2023-05-12T05:30:10.009Z,11.78
2023-05-12T05:32:40.491Z,11.79
2023-05-12T05:35:09.130Z,11.84
2023-05-12T05:37:37.153Z,11.83
2023-05-12T05:40:05.755Z,11.90
2023-05-12T05:42:33.476Z,11.88
2023-05-12T05:45:01.412Z,11.87
2023-05-12T05:47:31.942Z,11.87
2023-05-12T05:49:59.700Z,11.90
2023-05-12T05:52:27.468Z,11.87
2023-05-12T05:54:55.512Z,11.84
2023-05-12T05:57:23.257Z,11.94
2023-05-12T05:59:51.520Z,11.97
2023-05-12T06:02:23.229Z,11.97
2023-05-12T06:04:52.583Z,12.02
2023-05-12T06:07:22.093Z,12.04
2023-05-12T06:09:50.064Z,12.05
2023-05-12T06:12:17.782Z,12.08
2023-05-12T06:14:45.641Z,12.11
2023-05-12T06:17:13.397Z,12.14
2023-05-12T06:19:41.174Z,12.18
2023-05-12T06:22:10.279Z,12.16
2023-05-12T06:24:38.003Z,12.17
2023-05-12T06:27:05.726Z,12.19
2023-05-12T06:29:33.608Z,12.25
2023-05-12T06:32:01.619Z,12.30
2023-05-12T06:34:29.678Z,12.27
2023-05-12T06:36:57.398Z,12.26
2023-05-12T06:39:26.778Z,12.38
2023-05-12T06:41:54.520Z,12.39
2023-05-12T06:44:22.308Z,12.40
2023-05-12T06:46:50.020Z,12.47
2023-05-12T06:49:17.852Z,12.42
2023-05-12T06:51:45.951Z,12.42
2023-05-12T06:54:13.763Z,12.55
2023-05-12T06:56:42.938Z,12.52
2023-05-12T06:59:11.090Z,12.58
2023-05-12T07:01:39.039Z,12.63
2023-05-12T07:04:07.933Z,12.63
2023-05-12T07:06:35.881Z,12.74
2023-05-12T07:09:04.108Z,12.79
2023-05-12T07:11:31.884Z,12.79
2023-05-12T07:14:01.034Z,12.84
2023-05-12T07:16:28.846Z,12.85
2023-05-12T07:18:56.745Z,12.88
2023-05-12T07:21:24.639Z,12.91
2023-05-12T07:23:52.374Z,12.98
2023-05-12T07:26:21.392Z,12.95
2023-05-12T07:28:49.146Z,13.03
2023-05-12T07:31:18.271Z,13.13
2023-05-12T07:33:46.085Z,13.13
2023-05-12T07:36:13.978Z,13.19
2023-05-12T07:38:41.687Z,13.27
2023-05-12T07:41:09.636Z,13.33
2023-05-12T07:43:37.461Z,13.31
2023-05-12T07:46:05.267Z,13.33
2023-05-12T07:48:39.550Z,13.37
2023-05-12T07:51:08.109Z,13.44
2023-05-12T07:53:36.195Z,13.54
2023-05-12T07:56:04.060Z,13.61
2023-05-12T07:58:31.797Z,13.70
2023-05-12T08:01:01.076Z,13.64
2023-05-12T08:03:28.976Z,13.69
2023-05-12T08:05:58.095Z,13.74
2023-05-12T08:08:25.853Z,13.80
2023-05-12T08:10:53.580Z,13.82
2023-05-12T08:13:23.122Z,13.88
2023-05-12T08:15:51.182Z,13.97
2023-05-12T08:18:19.340Z,14.03
2023-05-12T08:20:47.198Z,14.17
2023-05-12T08:23:17.533Z,14.31
2023-05-12T08:25:45.477Z,14.36
2023-05-12T08:28:13.831Z,14.41
2023-05-12T08:30:41.717Z,14.44
2023-05-12T08:33:09.584Z,14.52
2023-05-12T08:35:37.506Z,14.56
2023-05-12T08:38:05.832Z,14.53
2023-05-12T08:40:44.945Z,14.57
2023-05-12T08:43:24.800Z,14.77
2023-05-12T08:45:57.436Z,14.84
2023-05-12T08:48:27.574Z,14.99
2023-05-12T08:50:56.012Z,15.16
2023-05-12T08:53:26.515Z,15.30
2023-05-12T08:57:10.032Z,15.35
2023-05-12T08:58:47.221Z,15.46
2023-05-12T09:01:17.452Z,15.52
2023-05-12T09:03:45.564Z,15.61
2023-05-12T09:06:14.405Z,15.75
2023-05-12T09:08:42.554Z,15.91
2023-05-12T09:11:13.626Z,16.22
2023-05-12T09:13:51.637Z,16.45
2023-05-12T09:16:23.799Z,16.47
2023-05-12T09:18:53.397Z,16.53
2023-05-12T09:21:21.865Z,16.68
2023-05-12T09:23:57.413Z,16.83
2023-05-12T09:26:27.850Z,16.85
2023-05-12T09:28:57.078Z,16.96
2023-05-12T09:31:26.094Z,17.05
2023-05-12T09:33:53.933Z,17.20
2023-05-12T09:36:22.999Z,17.21
2023-05-12T09:39:00.063Z,17.08
2023-05-12T09:41:29.396Z,17.10
2023-05-12T09:43:57.777Z,17.16
2023-05-12T09:46:26.112Z,17.26
2023-05-12T09:48:56.953Z,17.44
2023-05-12T09:51:25.458Z,17.63
2023-05-12T09:53:53.601Z,17.89
2023-05-12T09:56:22.037Z,18.10
2023-05-12T09:58:51.375Z,18.16
2023-05-12T10:01:24.009Z,18.20
2023-05-12T10:03:55.805Z,18.22
2023-05-12T10:06:28.351Z,18.38
2023-05-12T10:09:05.503Z,18.30
2023-05-12T10:11:33.830Z,18.32
2023-05-12T10:14:04.746Z,18.38
2023-05-12T10:16:34.593Z,18.50
2023-05-12T10:19:04.355Z,18.44
2023-05-12T10:21:33.157Z,18.42
2023-05-12T10:24:04.096Z,18.51
2023-05-12T10:26:34.799Z,18.55
2023-05-12T10:29:04.394Z,18.60
2023-05-12T10:31:33.680Z,18.61
2023-05-12T10:34:03.012Z,18.70
2023-05-12T10:36:31.089Z,18.56
2023-05-12T10:39:06.195Z,18.58
2023-05-12T10:41:35.484Z,18.53
2023-05-12T10:44:05.066Z,18.63
2023-05-12T10:46:33.014Z,18.82
2023-05-12T10:49:04.229Z,18.92
2023-05-12T10:51:33.652Z,19.05
2023-05-12T10:54:03.817Z,19.16
2023-05-12T10:56:43.462Z,19.10
2023-05-12T10:59:19.044Z,19.20
2023-05-12T11:02:05.125Z,19.36
2023-05-12T11:04:42.693Z,19.45
2023-05-12T11:07:13.855Z,19.43
2023-05-12T11:09:56.685Z,19.58
2023-05-12T11:12:27.636Z,19.55
2023-05-12T11:14:56.840Z,19.54
2023-05-12T11:17:24.761Z,19.48
2023-05-12T11:19:52.702Z,19.46
2023-05-12T11:22:22.533Z,19.60
2023-05-12T11:24:51.413Z,19.68
2023-05-12T11:27:20.728Z,19.70
2023-05-12T11:29:59.371Z,19.80
2023-05-12T11:32:27.383Z,19.94
2023-05-12T11:34:58.548Z,20.07
2023-05-12T11:37:26.406Z,20.09
2023-05-12T11:39:54.201Z,20.16
2023-05-12T11:42:25.079Z,20.30
2023-05-12T11:44:55.457Z,20.30
2023-05-12T11:47:24.733Z,20.23
2023-05-12T11:49:54.469Z,20.07
2023-05-12T11:52:23.972Z,20.16
2023-05-12T11:54:54.439Z,20.20
2023-05-12T11:57:28.888Z,20.29
2023-05-12T12:00:04.254Z,20.29
2023-05-12T12:02:33.903Z,20.18
2023-05-12T12:05:02.115Z,20.29
2023-05-12T12:07:31.845Z,20.44
2023-05-12T12:10:00.902Z,20.65
2023-05-12T12:12:28.729Z,20.62
2023-05-12T12:14:59.986Z,20.68
2023-05-12T12:17:30.962Z,20.79
2023-05-12T12:20:00.459Z,20.99
2023-05-12T12:22:29.741Z,21.09
2023-05-12T12:24:57.626Z,21.03
2023-05-12T12:27:25.483Z,21.07
2023-05-12T12:29:53.408Z,21.06
2023-05-12T12:32:21.267Z,21.18
2023-05-12T12:34:49.332Z,21.34
2023-05-12T12:37:20.700Z,21.38
2023-05-12T12:39:48.746Z,21.46
2023-05-12T12:42:16.582Z,21.63
2023-05-12T12:44:46.087Z,21.71
2023-05-12T12:47:14.422Z,21.61
2023-05-12T12:49:42.448Z,21.52
2023-05-12T12:52:10.452Z,21.47
2023-05-12T12:54:39.585Z,21.49
2023-05-12T12:57:07.360Z,21.56
2023-05-12T12:59:35.066Z,21.60
2023-05-12T13:02:02.944Z,21.65
2023-05-12T13:04:30.807Z,21.74
2023-05-12T13:06:58.540Z,21.75
2023-05-12T13:09:26.296Z,22.16
2023-05-12T13:11:55.819Z,22.33
2023-05-12T13:14:24.341Z,22.34
2023-05-12T13:16:52.914Z,22.44
2023-05-12T13:19:21.694Z,22.37
2023-05-12T13:21:49.661Z,22.36
2023-05-12T13:24:17.555Z,22.34
2023-05-12T13:26:45.399Z,22.42
2023-05-12T13:29:14.565Z,22.39
2023-05-12T13:31:43.149Z,22.40
2023-05-12T13:34:11.078Z,22.58
2023-05-12T13:36:39.068Z,22.54
2023-05-12T13:39:06.875Z,22.61
2023-05-12T13:41:34.852Z,22.68
2023-05-12T13:44:02.739Z,22.64
2023-05-12T13:46:31.929Z,22.57
2023-05-12T13:48:59.753Z,22.53
2023-05-12T13:51:27.721Z,22.54
2023-05-12T13:53:55.865Z,22.65
2023-05-12T13:56:24.239Z,22.74
2023-05-12T13:58:51.998Z,22.87
2023-05-12T14:01:19.869Z,22.77
2023-05-12T14:03:49.120Z,22.72
2023-05-12T14:06:17.147Z,22.70
2023-05-12T14:08:44.951Z,22.80
2023-05-12T14:11:12.715Z,22.96
2023-05-12T14:13:40.614Z,23.11
2023-05-12T14:16:09.384Z,23.39
2023-05-12T14:18:37.565Z,23.52
2023-05-12T14:21:06.883Z,23.53
2023-05-12T14:23:34.901Z,23.29
2023-05-12T14:26:03.581Z,22.84
2023-05-12T14:28:31.398Z,22.35
2023-05-12T14:30:59.326Z,22.20
2023-05-12T14:33:27.222Z,21.97
2023-05-12T14:36:05.956Z,21.84
2023-05-12T14:38:36.330Z,21.98
2023-05-12T14:41:04.241Z,21.85
2023-05-12T14:43:32.434Z,21.85
2023-05-12T14:46:01.857Z,21.87
2023-05-12T14:48:29.705Z,21.73
2023-05-12T14:50:58.201Z,21.60
2023-05-12T14:53:26.000Z,21.67
2023-05-12T14:55:55.410Z,21.52
2023-05-12T14:58:24.331Z,21.56
2023-05-12T15:00:52.828Z,21.46
2023-05-12T15:03:21.846Z,21.48
2023-05-12T15:08:21.608Z,21.85
2023-05-12T15:10:49.846Z,21.98
2023-05-12T15:13:20.609Z,22.14
2023-05-12T15:15:48.639Z,22.28
2023-05-12T15:18:16.851Z,22.23
2023-05-12T15:20:44.616Z,22.14
2023-05-12T15:23:12.399Z,22.05
2023-05-12T15:25:41.258Z,21.98
2023-05-12T15:28:09.444Z,21.90
2023-05-12T15:30:38.591Z,21.70
2023-05-12T15:33:06.702Z,21.75
2023-05-12T15:35:34.879Z,21.79
2023-05-12T15:38:02.729Z,21.48
2023-05-12T15:40:31.426Z,21.39
2023-05-12T15:42:59.270Z,21.15
2023-05-12T15:45:27.153Z,20.98
2023-05-12T15:47:56.816Z,20.75
2023-05-12T15:50:24.682Z,20.56
2023-05-12T15:52:52.511Z,20.41
2023-05-12T15:55:20.870Z,20.54
2023-05-12T15:57:49.042Z,20.52
2023-05-12T16:00:18.005Z,20.57
2023-05-12T16:02:45.905Z,20.58
2023-05-12T16:05:15.196Z,20.76
2023-05-12T16:07:43.470Z,20.58
2023-05-12T16:10:11.757Z,20.62
2023-05-12T16:12:40.163Z,20.35
2023-05-12T16:15:08.719Z,20.11
2023-05-12T16:17:36.516Z,20.08
2023-05-12T16:20:04.618Z,20.12
2023-05-12T16:22:33.974Z,20.15
2023-05-12T16:25:01.819Z,20.23
2023-05-12T16:27:29.684Z,20.27
2023-05-12T16:29:57.508Z,20.12
2023-05-12T16:32:25.434Z,20.01
2023-05-12T16:34:53.324Z,20.03
2023-05-12T16:37:22.722Z,19.97
2023-05-12T16:39:52.180Z,19.97
2023-05-12T16:42:20.224Z,19.83
2023-05-12T16:44:48.490Z,19.88
2023-05-12T16:47:16.860Z,20.08
2023-05-12T16:49:44.667Z,20.18
2023-05-12T16:52:12.696Z,20.21
2023-05-12T16:54:40.443Z,19.98
2023-05-12T16:57:09.648Z,19.79
2023-05-12T16:59:38.689Z,19.40
2023-05-12T17:02:08.409Z,19.16
2023-05-12T17:04:36.523Z,19.09
2023-05-12T17:07:04.320Z,18.95
2023-05-12T17:09:32.296Z,18.72
2023-05-12T17:12:00.122Z,18.52
2023-05-12T17:14:29.573Z,18.30
2023-05-12T17:16:57.636Z,18.21
2023-05-12T17:19:25.399Z,17.95
2023-05-12T17:21:53.751Z,18.05
2023-05-12T17:24:21.751Z,18.09
2023-05-12T17:26:49.767Z,18.10
2023-05-12T17:29:17.920Z,18.12
2023-05-12T17:31:47.262Z,18.07
2023-05-12T17:34:15.354Z,18.08
2023-05-12T17:36:43.418Z,18.03
2023-05-12T17:39:14.827Z,18.10
2023-05-12T17:41:42.748Z,18.18
2023-05-12T17:44:10.726Z,18.32
2023-05-12T17:46:39.026Z,18.37
2023-05-12T17:49:08.324Z,18.40
2023-05-12T17:51:36.370Z,18.34
2023-05-12T17:54:05.031Z,18.24
2023-05-12T17:56:34.186Z,18.20
2023-05-12T17:59:02.674Z,18.24
2023-05-12T18:01:30.686Z,18.29
2023-05-12T18:03:58.598Z,18.29
2023-05-12T18:06:27.775Z,18.33
2023-05-12T18:08:56.607Z,18.43
2023-05-12T18:11:24.448Z,18.37
2023-05-12T18:13:52.533Z,18.51
2023-05-12T18:16:28.657Z,18.51
2023-05-12T18:18:57.429Z,18.47
2023-05-12T18:21:25.932Z,18.58
2023-05-12T18:23:55.822Z,18.52
2023-05-12T18:26:24.031Z,18.58
2023-05-12T18:28:51.940Z,18.64
2023-05-12T18:31:20.507Z,18.60
2023-05-12T18:33:48.877Z,18.57
2023-05-12T18:36:16.891Z,18.59
2023-05-12T18:38:45.077Z,18.46
2023-05-12T18:41:14.252Z,18.49
2023-05-12T18:43:44.017Z,18.46
2023-05-12T18:46:12.502Z,18.43
2023-05-12T18:48:40.904Z,18.43
2023-05-12T18:51:09.570Z,18.37
2023-05-12T18:53:37.493Z,18.28
2023-05-12T18:56:05.562Z,18.27
2023-05-12T18:58:34.813Z,18.10
2023-05-12T19:01:03.856Z,17.96
2023-05-12T19:03:33.080Z,17.83
2023-05-12T19:06:01.159Z,17.88
2023-05-12T19:08:28.984Z,17.83
2023-05-12T19:10:56.823Z,17.81
2023-05-12T19:13:24.682Z,17.81
2023-05-12T19:15:53.906Z,17.83
2023-05-12T19:18:21.940Z,17.86
2023-05-12T19:20:49.884Z,17.88
2023-05-12T19:23:17.831Z,17.88
2023-05-12T19:25:45.710Z,17.92
2023-05-12T19:28:13.519Z,17.99
2023-05-12T19:30:41.834Z,18.01
2023-05-12T19:33:11.069Z,18.00
2023-05-12T19:35:39.258Z,17.92
2023-05-12T19:38:07.094Z,17.90
2023-05-12T19:40:35.241Z,17.86
2023-05-12T19:43:05.052Z,17.76
2023-05-12T19:45:32.920Z,17.72
2023-05-12T19:48:00.804Z,17.61
2023-05-12T19:50:30.763Z,17.51
2023-05-12T19:52:58.707Z,17.50
2023-05-12T19:55:26.982Z,17.52
2023-05-12T19:57:54.851Z,17.54
2023-05-12T20:00:22.799Z,17.53
2023-05-12T20:02:51.119Z,17.43
2023-05-12T20:05:19.394Z,17.45
2023-05-12T20:07:49.530Z,17.35
2023-05-12T20:10:17.691Z,17.41
2023-05-12T20:12:45.563Z,17.36
2023-05-12T20:15:13.344Z,17.35
2023-05-12T20:17:41.302Z,17.36
2023-05-12T20:20:11.834Z,17.35
2023-05-12T20:22:39.997Z,17.29
2023-05-12T20:25:12.483Z,17.30
2023-05-12T20:27:40.483Z,17.27
2023-05-12T20:30:09.789Z,17.23
2023-05-12T20:32:37.747Z,17.20
2023-05-12T20:35:06.463Z,17.11
2023-05-12T20:37:34.634Z,17.08
2023-05-12T20:40:03.180Z,17.02
2023-05-12T20:42:32.358Z,17.00
2023-05-12T20:45:00.234Z,16.99
2023-05-12T20:47:30.438Z,16.92
2023-05-12T20:49:58.720Z,16.93
2023-05-12T20:52:28.957Z,16.91
2023-05-12T20:54:58.114Z,16.84
2023-05-12T20:57:26.045Z,16.81
2023-05-12T20:59:56.848Z,16.75
2023-05-12T21:02:25.044Z,16.71
2023-05-12T21:04:53.336Z,16.67
2023-05-12T21:07:21.753Z,16.51
2023-05-12T21:09:49.866Z,16.50
2023-05-12T21:12:17.805Z,16.34
2023-05-12T21:14:46.336Z,16.35
2023-05-12T21:17:16.658Z,16.41
2023-05-12T21:19:44.553Z,16.40
2023-05-12T21:22:13.128Z,16.39
2023-05-12T21:24:42.219Z,16.36
2023-05-12T21:27:10.146Z,16.25
2023-05-12T21:29:37.994Z,16.24
2023-05-12T21:32:06.549Z,16.15
2023-05-12T21:34:36.181Z,16.13
2023-05-12T21:37:04.106Z,16.06
2023-05-12T21:39:31.909Z,16.04
2023-05-12T21:41:59.709Z,16.00
2023-05-12T21:44:27.823Z,15.99
2023-05-12T21:46:55.634Z,15.93
2023-05-12T21:49:23.532Z,15.81
2023-05-12T21:51:55.870Z,15.82
2023-05-12T21:54:23.717Z,15.79
2023-05-12T21:56:51.786Z,15.66
2023-05-12T21:59:20.683Z,15.75
2023-05-12T22:01:48.597Z,15.71
2023-05-12T22:04:16.607Z,15.65
2023-05-12T22:06:44.476Z,15.65
2023-05-12T22:09:13.773Z,15.62
2023-05-12T22:11:42.004Z,15.59
2023-05-12T22:14:09.860Z,15.56
2023-05-12T22:16:41.910Z,15.57
2023-05-12T22:19:10.622Z,15.60
2023-05-12T22:21:38.646Z,15.60
2023-05-12T22:24:07.027Z,15.59
2023-05-12T22:26:36.183Z,15.60
2023-05-12T22:29:03.956Z,15.52
2023-05-12T22:31:31.816Z,15.53
2023-05-12T22:33:59.620Z,15.55
2023-05-12T22:36:27.402Z,15.52
2023-05-12T22:38:55.172Z,15.50
2023-05-12T22:41:22.991Z,15.46
2023-05-12T22:43:52.247Z,15.45
2023-05-12T22:46:20.040Z,15.43
2023-05-12T22:48:47.916Z,15.37
2023-05-12T22:51:15.773Z,15.40
2023-05-12T22:53:43.522Z,15.35
2023-05-12T22:56:11.324Z,15.33
2023-05-12T22:58:39.092Z,15.30
2023-05-12T23:01:08.321Z,15.27
2023-05-12T23:03:36.197Z,15.26
2023-05-12T23:06:03.990Z,15.16
2023-05-12T23:08:31.778Z,15.22
2023-05-12T23:10:59.610Z,15.21
2023-05-12T23:13:27.449Z,15.20
2023-05-12T23:15:55.194Z,15.18
2023-05-12T23:18:24.422Z,15.11
2023-05-12T23:20:52.249Z,15.11
2023-05-12T23:23:19.994Z,15.05
2023-05-12T23:25:48.041Z,15.06
2023-05-12T23:28:15.880Z,15.04
2023-05-12T23:30:43.678Z,15.00
2023-05-12T23:33:11.591Z,14.98
2023-05-12T23:35:40.794Z,14.91
2023-05-12T23:38:08.568Z,14.92
2023-05-12T23:40:39.098Z,14.85
2023-05-12T23:43:07.361Z,14.77
2023-05-12T23:45:35.867Z,14.87
2023-05-12T23:48:03.687Z,14.83
2023-05-12T23:50:31.605Z,14.82
2023-05-12T23:53:00.722Z,14.80
2023-05-12T23:55:28.666Z,14.73
2023-05-12T23:57:56.748Z,14.76
